createdAt,value
2018-08-16T06:19:52.154Z,18.70
2018-08-16T06:22:20.391Z,19.00
2018-08-16T06:24:48.645Z,19.20
2018-08-16T06:27:16.930Z,19.40
2018-08-16T06:29:45.161Z,19.60
2018-08-16T06:32:13.453Z,19.90
2018-08-16T06:34:41.709Z,20.10
2018-08-16T06:37:09.987Z,20.20
2018-08-16T06:39:38.241Z,20.40
2018-08-16T06:42:06.537Z,20.60
2018-08-16T06:44:34.789Z,20.80
2018-08-16T06:47:03.268Z,21.00
2018-08-16T06:49:31.508Z,21.30
2018-08-16T06:51:59.789Z,21.40
2018-08-16T06:54:28.036Z,21.60
2018-08-16T06:57:00.106Z,21.70
2018-08-16T06:59:28.339Z,21.90
2018-08-16T07:01:56.590Z,22.00
2018-08-16T07:04:24.845Z,22.20
2018-08-16T07:06:53.118Z,22.40
2018-08-16T07:09:21.369Z,22.70
2018-08-16T07:11:49.650Z,23.00
2018-08-16T07:14:17.926Z,23.10
2018-08-16T07:16:46.214Z,23.10
2018-08-16T07:19:14.483Z,23.20
2018-08-16T07:21:42.768Z,23.30
2018-08-16T07:24:11.021Z,23.50
2018-08-16T07:26:39.329Z,23.60
2018-08-16T07:29:07.587Z,23.70
2018-08-16T07:31:35.866Z,23.80
2018-08-16T07:34:04.117Z,24.10
2018-08-16T07:36:32.378Z,24.10
2018-08-16T07:39:00.653Z,24.30
2018-08-16T07:41:28.902Z,24.30
2018-08-16T07:43:57.146Z,24.20
2018-08-16T07:46:25.480Z,24.40
2018-08-16T07:48:53.660Z,24.50
2018-08-16T07:51:22.066Z,24.70
2018-08-16T07:53:50.176Z,24.60
2018-08-16T07:56:18.443Z,24.80
2018-08-16T07:58:46.686Z,24.90
2018-08-16T08:01:14.959Z,24.90
2018-08-16T08:03:43.208Z,24.90
2018-08-16T08:06:11.465Z,25.20
2018-08-16T08:08:39.721Z,25.20
2018-08-16T08:11:07.992Z,25.30
2018-08-16T08:13:36.237Z,25.50
2018-08-16T08:16:04.546Z,25.70
2018-08-16T08:18:32.845Z,25.80
2018-08-16T08:21:01.098Z,25.80
2018-08-16T08:23:29.352Z,26.00
2018-08-16T08:25:57.585Z,26.10
2018-08-16T08:28:25.842Z,26.30
2018-08-16T08:30:54.084Z,26.30
2018-08-16T08:33:22.355Z,26.30
2018-08-16T08:36:02.326Z,26.20
2018-08-16T08:38:30.638Z,26.30
2018-08-16T08:40:58.873Z,26.50
2018-08-16T08:43:38.514Z,26.50
2018-08-16T08:46:06.777Z,26.60
2018-08-16T08:48:35.054Z,26.80
2018-08-16T08:51:03.312Z,26.90
2018-08-16T08:55:00.181Z,27.00
2018-08-16T08:57:39.688Z,26.80
2018-08-16T09:00:08.128Z,26.90
2018-08-16T09:02:36.471Z,26.90
2018-08-16T09:05:05.768Z,26.90
2018-08-16T09:07:34.035Z,26.90
2018-08-16T09:11:14.258Z,27.10
2018-08-16T09:13:55.164Z,27.20
2018-08-16T09:16:28.128Z,27.50
2018-08-16T09:18:56.703Z,27.50
2018-08-16T09:21:25.092Z,27.30
2018-08-16T09:23:53.385Z,27.20
2018-08-16T09:26:27.318Z,27.00
2018-08-16T09:28:55.558Z,27.00
2018-08-16T09:31:34.998Z,27.10
2018-08-16T09:34:14.298Z,27.20
2018-08-16T09:36:42.528Z,27.20
2018-08-16T09:39:10.777Z,27.30
2018-08-16T09:41:39.121Z,27.50
2018-08-16T09:44:07.479Z,27.60
2018-08-16T09:47:01.211Z,27.40
2018-08-16T09:49:30.852Z,27.30
2018-08-16T09:51:59.197Z,26.90
2018-08-16T09:54:27.469Z,26.60
2018-08-16T09:56:56.626Z,26.50
2018-08-16T09:59:24.908Z,26.40
2018-08-16T10:01:53.211Z,26.30
2018-08-16T10:04:21.486Z,26.50
2018-08-16T10:06:49.730Z,26.80
2018-08-16T10:09:23.104Z,27.20
2018-08-16T10:11:51.467Z,27.60
2018-08-16T10:14:20.043Z,27.50
2018-08-16T10:16:48.369Z,27.30
2018-08-16T10:19:16.634Z,27.50
2018-08-16T10:21:44.929Z,27.70
2018-08-16T10:24:13.270Z,27.80
2018-08-16T10:26:41.506Z,27.80
2018-08-16T10:29:10.294Z,27.80
2018-08-16T10:31:38.567Z,27.50
2018-08-16T10:34:06.832Z,27.60
2018-08-16T10:36:35.105Z,27.60
2018-08-16T10:39:04.583Z,27.70
2018-08-16T10:41:32.846Z,28.00
2018-08-16T10:44:01.090Z,28.20
2018-08-16T10:46:29.321Z,28.30
2018-08-16T10:48:57.586Z,28.30
2018-08-16T10:51:25.838Z,28.30
2018-08-16T10:53:54.093Z,28.30
2018-08-16T10:56:22.338Z,28.10
2018-08-16T10:58:50.596Z,27.60
2018-08-16T11:01:18.873Z,27.80
2018-08-16T11:03:47.116Z,27.80
2018-08-16T11:06:15.361Z,27.70
2018-08-16T11:08:43.648Z,27.50
2018-08-16T11:11:11.897Z,27.60
2018-08-16T11:13:40.153Z,27.70
2018-08-16T11:16:08.432Z,28.00
2018-08-16T11:18:36.669Z,28.20
2018-08-16T11:21:04.924Z,28.10
2018-08-16T11:23:33.165Z,27.80
2018-08-16T11:26:01.412Z,27.80
2018-08-16T11:28:29.654Z,27.90
2018-08-16T11:30:57.919Z,28.10
2018-08-16T11:33:26.163Z,28.40
2018-08-16T11:35:54.445Z,28.10
2018-08-16T11:38:22.692Z,28.10
2018-08-16T11:40:50.965Z,28.30
2018-08-16T11:43:19.196Z,28.50
2018-08-16T11:45:47.448Z,28.40
2018-08-16T11:48:15.689Z,28.20
2018-08-16T11:50:43.958Z,28.40
2018-08-16T11:53:12.230Z,28.40
2018-08-16T11:55:40.497Z,28.30
2018-08-16T11:58:08.761Z,28.30
2018-08-16T12:00:37.056Z,28.50
2018-08-16T12:03:05.629Z,28.80
2018-08-16T12:05:33.913Z,28.90
2018-08-16T12:08:02.198Z,28.90
2018-08-16T12:10:30.527Z,28.90
2018-08-16T12:12:58.790Z,29.10
2018-08-16T12:15:27.084Z,29.10
2018-08-16T12:17:55.330Z,29.00
2018-08-16T12:20:23.609Z,28.90
2018-08-16T12:22:51.857Z,28.90
2018-08-16T12:25:20.133Z,28.80
2018-08-16T12:27:48.423Z,28.70
2018-08-16T12:30:16.701Z,28.70
2018-08-16T12:32:44.962Z,28.60
2018-08-16T12:35:13.256Z,28.70
2018-08-16T12:37:41.583Z,28.60
2018-08-16T12:40:09.872Z,28.80
2018-08-16T12:42:38.129Z,29.00
2018-08-16T12:45:06.618Z,29.00
2018-08-16T12:47:34.878Z,29.00
2018-08-16T12:50:03.184Z,29.00
2018-08-16T12:52:31.459Z,28.80
2018-08-16T12:54:59.725Z,29.00
2018-08-16T12:57:28.009Z,29.10
2018-08-16T12:59:56.338Z,29.20
2018-08-16T13:02:24.584Z,29.10
2018-08-16T13:04:52.850Z,29.20
2018-08-16T13:07:21.133Z,29.10
2018-08-16T13:09:49.394Z,29.00
2018-08-16T13:12:17.713Z,29.00
2018-08-16T13:14:45.972Z,29.00
2018-08-16T13:17:14.285Z,28.90
2018-08-16T13:19:42.556Z,29.00
2018-08-16T13:22:10.842Z,29.10
2018-08-16T13:24:39.117Z,29.10
2018-08-16T13:27:07.484Z,29.10
2018-08-16T13:29:35.745Z,29.10
2018-08-16T13:32:04.022Z,29.00
2018-08-16T13:34:32.270Z,29.00
2018-08-16T13:37:00.546Z,29.10
2018-08-16T13:39:28.825Z,29.10
2018-08-16T13:41:57.116Z,29.20
2018-08-16T13:44:25.421Z,29.20
2018-08-16T13:46:53.695Z,29.30
2018-08-16T13:49:21.974Z,29.30
2018-08-16T13:51:50.249Z,29.40
2018-08-16T13:54:18.499Z,29.40
2018-08-16T13:56:46.778Z,29.30
2018-08-16T13:59:15.036Z,29.10
2018-08-16T14:01:43.376Z,29.10
2018-08-16T14:04:11.617Z,29.00
2018-08-16T14:06:39.901Z,28.90
2018-08-16T14:09:09.051Z,29.00
2018-08-16T14:11:37.342Z,29.10
2018-08-16T14:14:05.709Z,29.10
2018-08-16T14:16:34.026Z,29.10
2018-08-16T14:19:02.291Z,29.20
2018-08-16T14:21:30.580Z,29.10
2018-08-16T14:23:58.845Z,29.10
2018-08-16T14:26:27.134Z,29.20
2018-08-16T14:28:55.485Z,29.10
2018-08-16T14:31:23.764Z,29.20
2018-08-16T14:33:52.207Z,29.20
2018-08-16T14:36:20.495Z,29.20
2018-08-16T14:38:48.812Z,29.10
2018-08-16T14:41:17.073Z,29.00
2018-08-16T14:43:45.348Z,29.10
2018-08-16T14:46:13.784Z,29.00
2018-08-16T14:48:42.041Z,29.00
2018-08-16T14:51:10.344Z,29.10
2018-08-16T14:53:38.665Z,29.10
2018-08-16T14:56:07.092Z,29.10
2018-08-16T14:58:35.410Z,29.10
2018-08-16T15:01:03.685Z,29.10
2018-08-16T15:03:31.960Z,29.10
2018-08-16T15:06:00.253Z,29.00
2018-08-16T15:08:28.525Z,29.00
2018-08-16T15:10:56.799Z,28.90
2018-08-16T15:13:25.084Z,28.90
2018-08-16T15:15:53.376Z,28.90
2018-08-16T15:18:21.668Z,28.80
2018-08-16T15:20:49.911Z,28.80
2018-08-16T15:23:18.202Z,28.80
2018-08-16T15:25:46.458Z,28.70
2018-08-16T15:28:14.782Z,28.70
2018-08-16T15:30:43.093Z,28.70
2018-08-16T15:33:11.426Z,28.70
2018-08-16T15:35:39.673Z,28.70
2018-08-16T15:38:08.757Z,28.70
2018-08-16T15:40:37.044Z,28.60
2018-08-16T15:43:05.333Z,28.60
2018-08-16T15:45:33.650Z,28.50
2018-08-16T15:48:01.974Z,28.40
2018-08-16T15:50:30.197Z,28.40
2018-08-16T15:52:58.485Z,28.40
2018-08-16T15:55:26.745Z,28.30
2018-08-16T15:57:55.038Z,28.40
2018-08-16T16:00:23.293Z,28.30
2018-08-16T16:02:51.573Z,28.30
2018-08-16T16:05:19.839Z,28.20
2018-08-16T16:07:48.120Z,28.10
2018-08-16T16:10:16.382Z,28.10
2018-08-16T16:12:44.649Z,28.10
2018-08-16T16:15:12.934Z,28.00
2018-08-16T16:17:41.257Z,27.90
2018-08-16T16:20:09.520Z,27.80
2018-08-16T16:22:38.133Z,27.80
2018-08-16T16:25:06.980Z,27.80
2018-08-16T16:27:35.733Z,27.80
2018-08-16T16:30:04.765Z,27.70
2018-08-16T16:32:33.057Z,27.70
2018-08-16T16:35:01.394Z,27.70
2018-08-16T16:37:29.690Z,27.60
2018-08-16T16:39:57.981Z,27.50
2018-08-16T16:42:26.265Z,27.50
2018-08-16T16:44:54.535Z,27.50
2018-08-16T16:47:22.804Z,27.40
2018-08-16T16:49:51.095Z,27.40
2018-08-16T16:52:19.373Z,27.40
2018-08-16T16:54:47.662Z,27.30
2018-08-16T16:57:15.935Z,27.20
2018-08-16T16:59:44.233Z,27.10
2018-08-16T17:02:12.513Z,27.10
2018-08-16T17:04:40.881Z,27.00
2018-08-16T17:07:09.216Z,27.00
2018-08-16T17:09:37.510Z,26.90
2018-08-16T17:12:06.024Z,26.80
2018-08-16T17:14:34.306Z,26.60
2018-08-16T17:17:02.607Z,26.50
2018-08-16T17:19:30.921Z,26.50
2018-08-16T17:21:59.189Z,26.50
2018-08-16T17:24:27.489Z,26.40
2018-08-16T17:26:55.764Z,26.30
2018-08-16T17:29:24.066Z,26.30
2018-08-16T17:31:52.387Z,26.20
2018-08-16T17:34:20.813Z,26.00
2018-08-16T17:36:49.165Z,25.90
2018-08-16T17:39:17.420Z,25.80
2018-08-16T17:41:45.701Z,25.70
2018-08-16T17:44:14.010Z,25.60
2018-08-16T17:46:42.277Z,25.50
2018-08-16T17:49:10.575Z,25.30
2018-08-16T17:51:38.853Z,25.20
2018-08-16T17:54:07.236Z,25.00
2018-08-16T17:56:35.537Z,24.80
2018-08-16T17:59:03.821Z,24.60
2018-08-16T18:01:32.117Z,24.40
2018-08-16T18:04:00.409Z,24.30
2018-08-16T18:06:28.679Z,24.10
2018-08-16T18:08:56.970Z,23.90
2018-08-16T18:11:25.265Z,23.80
2018-08-16T18:13:53.556Z,23.60
2018-08-16T18:16:21.858Z,23.50
2018-08-16T18:18:50.156Z,23.40
2018-08-16T18:21:18.410Z,23.20
2018-08-16T18:23:46.698Z,23.10
2018-08-16T18:26:14.941Z,22.90
2018-08-16T18:28:43.228Z,22.70
2018-08-16T18:31:11.479Z,22.60
2018-08-16T18:33:39.764Z,22.50
2018-08-16T18:36:08.020Z,22.40
2018-08-16T18:38:36.316Z,22.20
2018-08-16T18:41:04.589Z,22.10
2018-08-16T18:43:32.857Z,22.00
2018-08-16T18:46:01.142Z,21.90
2018-08-16T18:48:29.408Z,21.70
2018-08-16T18:50:57.693Z,21.70
2018-08-16T18:53:25.972Z,21.60
2018-08-16T18:55:54.269Z,21.40
2018-08-16T18:58:22.546Z,21.40
2018-08-16T19:00:50.822Z,21.30
2018-08-16T19:03:19.081Z,21.20
2018-08-16T19:05:47.441Z,21.10
